createdAt,value
2022-11-05T00:00:02.009Z,11.26
2022-11-05T00:01:27.363Z,11.24
2022-11-05T00:02:48.509Z,11.23
2022-11-05T00:04:09.706Z,11.21
2022-11-05T00:05:31.829Z,11.21
2022-11-05T00:06:52.773Z,11.23
2022-11-05T00:08:13.849Z,11.23
2022-11-05T00:09:32.943Z,11.24
2022-11-05T00:10:38.412Z,11.26
2022-11-05T00:11:59.673Z,11.27
2022-11-05T00:13:20.749Z,11.28
2022-11-05T00:14:42.570Z,11.28
2022-11-05T00:16:05.393Z,11.28
2022-11-05T00:17:09.104Z,11.30
2022-11-05T00:18:11.760Z,11.31
2022-11-05T00:19:16.922Z,11.32
2022-11-05T00:20:19.730Z,11.33
2022-11-05T00:21:41.049Z,11.36
2022-11-05T00:23:16.598Z,11.37
2022-11-05T00:24:38.001Z,11.38
2022-11-05T00:25:41.721Z,11.38
2022-11-05T00:26:44.441Z,11.39
2022-11-05T00:27:49.621Z,11.40
2022-11-05T00:28:52.333Z,11.42
2022-11-05T00:29:56.053Z,11.42
2022-11-05T00:31:03.213Z,11.44
2022-11-05T00:32:07.111Z,11.44
2022-11-05T00:33:11.355Z,11.44
2022-11-05T00:34:14.256Z,11.43
2022-11-05T00:35:18.759Z,11.42
2022-11-05T00:36:22.501Z,11.44
2022-11-05T00:37:25.222Z,11.42
2022-11-05T00:38:28.932Z,11.43
2022-11-05T00:39:31.641Z,11.42
2022-11-05T00:40:35.570Z,11.43
2022-11-05T00:41:38.272Z,11.42
2022-11-05T00:43:00.965Z,11.41
2022-11-05T00:44:21.881Z,11.38
2022-11-05T00:45:25.711Z,11.35
2022-11-05T00:46:29.771Z,11.32
2022-11-05T00:47:52.080Z,11.28
2022-11-05T00:49:13.251Z,11.21
2022-11-05T00:50:17.312Z,11.15
2022-11-05T00:51:21.307Z,11.12
2022-11-05T00:52:41.354Z,11.09
2022-11-05T00:53:45.099Z,11.04
2022-11-05T00:54:47.779Z,11.01
2022-11-05T00:55:51.474Z,10.98
2022-11-05T00:56:54.158Z,10.94
2022-11-05T00:57:58.632Z,10.92
2022-11-05T00:59:02.473Z,10.87
2022-11-05T01:00:06.157Z,10.83
2022-11-05T01:01:11.881Z,10.79
2022-11-05T01:02:16.673Z,10.77
2022-11-05T01:03:22.169Z,10.72
2022-11-05T01:04:25.120Z,10.68
2022-11-05T01:05:29.160Z,10.65
2022-11-05T01:06:32.820Z,10.61
2022-11-05T01:07:35.539Z,10.58
2022-11-05T01:08:39.651Z,10.55
2022-11-05T01:09:42.349Z,10.52
2022-11-05T01:10:47.684Z,10.49
2022-11-05T01:11:51.557Z,10.46
2022-11-05T01:12:55.852Z,10.43
2022-11-05T01:13:58.621Z,10.40
2022-11-05T01:15:02.523Z,10.38
2022-11-05T01:16:06.988Z,10.36
2022-11-05T01:17:10.729Z,10.34
2022-11-05T01:18:14.900Z,10.33
2022-11-05T01:19:18.631Z,10.31
2022-11-05T01:20:21.535Z,10.28
2022-11-05T01:21:25.319Z,10.27
2022-11-05T01:22:28.023Z,10.25
2022-11-05T01:23:31.781Z,10.24
2022-11-05T01:24:37.439Z,10.22
2022-11-05T01:25:41.109Z,10.21
2022-11-05T01:26:43.790Z,10.20
2022-11-05T01:27:47.577Z,10.19
2022-11-05T01:28:52.956Z,10.17
2022-11-05T01:29:56.811Z,10.17
2022-11-05T01:31:00.536Z,10.16
2022-11-05T01:32:03.243Z,10.15
2022-11-05T01:33:07.120Z,10.15
2022-11-05T01:34:11.243Z,10.16
2022-11-05T01:35:16.681Z,10.17
2022-11-05T01:36:19.482Z,10.16
2022-11-05T01:37:23.295Z,10.17
2022-11-05T01:38:27.054Z,10.17
2022-11-05T01:39:29.695Z,10.16
2022-11-05T01:40:33.908Z,10.16
2022-11-05T01:41:36.591Z,10.15
2022-11-05T01:42:40.403Z,10.16
2022-11-05T01:43:48.410Z,10.17
2022-11-05T01:45:01.365Z,10.16
2022-11-05T01:46:05.200Z,10.13
2022-11-05T01:47:08.114Z,10.12
2022-11-05T01:48:16.031Z,10.10
2022-11-05T01:49:24.211Z,10.07
2022-11-05T01:50:35.401Z,10.06
2022-11-05T01:51:39.250Z,10.02
2022-11-05T01:52:41.943Z,10.01
2022-11-05T01:53:48.501Z,9.97
2022-11-05T01:54:51.471Z,9.95
2022-11-05T01:56:01.424Z,9.93
2022-11-05T01:57:07.315Z,9.91
2022-11-05T01:58:13.671Z,9.90
2022-11-05T01:59:21.307Z,9.89
2022-11-05T02:00:24.091Z,9.87
2022-11-05T02:01:28.172Z,9.87
2022-11-05T02:02:31.715Z,9.86
2022-11-05T02:03:36.245Z,9.86
2022-11-05T02:04:44.452Z,9.85
2022-11-05T02:05:49.880Z,9.84
2022-11-05T02:06:53.434Z,9.81
2022-11-05T02:07:57.592Z,9.79
2022-11-05T02:09:03.911Z,9.76
2022-11-05T02:10:10.059Z,9.75
2022-11-05T02:11:13.850Z,9.72
2022-11-05T02:12:17.621Z,9.72
2022-11-05T02:13:21.357Z,9.72
2022-11-05T02:14:24.352Z,9.73
2022-11-05T02:15:35.150Z,9.73
2022-11-05T02:16:41.990Z,9.73
2022-11-05T02:17:53.111Z,9.74
2022-11-05T02:19:00.491Z,9.73
2022-11-05T02:20:19.932Z,9.72
2022-11-05T02:21:58.813Z,9.71
2022-11-05T02:23:42.722Z,9.68
2022-11-05T02:25:02.174Z,9.64
2022-11-05T02:26:22.750Z,9.61
2022-11-05T02:27:42.823Z,9.57
2022-11-05T02:29:10.700Z,9.54
2022-11-05T02:30:44.259Z,9.47
2022-11-05T02:31:49.607Z,9.45
2022-11-05T02:33:12.628Z,9.42
2022-11-05T02:34:21.850Z,9.38
2022-11-05T02:35:36.483Z,9.36
2022-11-05T02:36:45.285Z,9.34
2022-11-05T02:37:52.677Z,9.33
2022-11-05T02:39:05.556Z,9.31
2022-11-05T02:40:15.381Z,9.28
2022-11-05T02:41:25.830Z,9.28
2022-11-05T02:42:36.029Z,9.25
2022-11-05T02:43:48.760Z,9.25
2022-11-05T02:44:56.926Z,9.25
2022-11-05T02:46:07.686Z,9.24
2022-11-05T02:47:18.252Z,9.22
2022-11-05T02:48:27.342Z,9.22
2022-11-05T02:49:39.832Z,9.22
2022-11-05T02:50:50.338Z,9.21
2022-11-05T02:51:57.466Z,9.19
2022-11-05T02:53:03.214Z,9.17
2022-11-05T02:54:09.749Z,9.17
2022-11-05T02:55:20.597Z,9.16
2022-11-05T02:56:27.311Z,9.16
2022-11-05T02:57:30.500Z,9.15
2022-11-05T02:58:35.869Z,9.15
2022-11-05T02:59:38.563Z,9.16
2022-11-05T03:00:46.099Z,9.16
2022-11-05T03:01:50.964Z,9.16
2022-11-05T03:02:54.859Z,9.16
2022-11-05T03:03:59.052Z,9.15
2022-11-05T03:05:02.849Z,9.14
2022-11-05T03:06:26.660Z,9.15
2022-11-05T03:07:39.873Z,9.12
2022-11-05T03:08:53.633Z,9.14
2022-11-05T03:10:27.690Z,9.12
2022-11-05T03:11:32.344Z,9.12
2022-11-05T03:12:44.680Z,9.12
2022-11-05T03:13:53.721Z,9.11
2022-11-05T03:15:01.128Z,9.11
2022-11-05T03:16:10.111Z,9.11
2022-11-05T03:17:22.804Z,9.11
2022-11-05T03:18:30.418Z,9.10
2022-11-05T03:19:38.784Z,9.10
2022-11-05T03:20:47.841Z,9.11
2022-11-05T03:21:54.448Z,9.09
2022-11-05T03:23:03.934Z,9.09
2022-11-05T03:24:10.989Z,9.08
2022-11-05T03:25:17.881Z,9.07
2022-11-05T03:26:24.022Z,9.06
2022-11-05T03:27:30.848Z,9.06
2022-11-05T03:28:36.989Z,9.06
2022-11-05T03:29:44.093Z,9.05
2022-11-05T03:30:48.779Z,9.05
2022-11-05T03:31:54.663Z,9.04
2022-11-05T03:33:00.812Z,9.04
2022-11-05T03:34:06.302Z,9.03
2022-11-05T03:35:11.752Z,9.01
2022-11-05T03:36:18.772Z,9.00
2022-11-05T03:37:23.357Z,8.99
2022-11-05T03:38:29.225Z,8.97
2022-11-05T03:39:36.532Z,8.97
2022-11-05T03:40:40.805Z,8.95
2022-11-05T03:41:44.924Z,8.94
2022-11-05T03:42:53.881Z,8.94
2022-11-05T03:43:59.420Z,8.91
2022-11-05T03:45:07.179Z,8.91
2022-11-05T03:46:12.512Z,8.90
2022-11-05T03:47:19.521Z,8.90
2022-11-05T03:48:24.921Z,8.90
2022-11-05T03:49:32.321Z,8.91
2022-11-05T03:50:41.413Z,8.93
2022-11-05T03:51:51.252Z,8.96
2022-11-05T03:52:55.450Z,8.97
2022-11-05T03:54:01.489Z,9.00
2022-11-05T03:55:04.750Z,9.03
2022-11-05T03:56:12.141Z,9.05
2022-11-05T03:57:19.709Z,9.08
2022-11-05T03:58:23.920Z,9.10
2022-11-05T03:59:26.904Z,9.12
2022-11-05T04:00:30.731Z,9.13
2022-11-05T04:01:33.728Z,9.18
2022-11-05T04:02:39.304Z,9.18
2022-11-05T04:03:43.420Z,9.20
2022-11-05T04:04:47.182Z,9.22
2022-11-05T04:06:10.091Z,9.23
2022-11-05T04:07:31.606Z,9.24
2022-11-05T04:08:52.782Z,9.25
2022-11-05T04:10:13.979Z,9.25
2022-11-05T04:11:34.943Z,9.24
2022-11-05T04:12:55.804Z,9.26
2022-11-05T04:13:59.531Z,9.27
2022-11-05T04:15:02.423Z,9.28
2022-11-05T04:16:24.120Z,9.27
2022-11-05T04:17:27.847Z,9.29
2022-11-05T04:18:30.489Z,9.29
2022-11-05T04:19:53.009Z,9.31
2022-11-05T04:21:13.469Z,9.31
2022-11-05T04:22:34.571Z,9.31
2022-11-05T04:24:04.301Z,9.31
2022-11-05T04:25:08.529Z,9.31
2022-11-05T04:26:11.282Z,9.32
2022-11-05T04:27:15.005Z,9.34
2022-11-05T04:28:17.743Z,9.35
2022-11-05T04:29:38.470Z,9.36
2022-11-05T04:30:44.463Z,9.35
2022-11-05T04:31:47.153Z,9.36
2022-11-05T04:33:01.759Z,9.37
2022-11-05T04:34:05.873Z,9.36
2022-11-05T04:35:10.002Z,9.36
2022-11-05T04:36:13.762Z,9.36
2022-11-05T04:37:16.633Z,9.37
2022-11-05T04:38:21.649Z,9.37
2022-11-05T04:39:24.372Z,9.38
2022-11-05T04:40:28.320Z,9.37
2022-11-05T04:41:30.994Z,9.38
2022-11-05T04:42:34.772Z,9.37
2022-11-05T04:43:37.521Z,9.36
2022-11-05T04:44:41.201Z,9.37
2022-11-05T04:45:44.053Z,9.37
2022-11-05T04:46:47.830Z,9.37
2022-11-05T04:47:50.741Z,9.37
2022-11-05T04:48:54.530Z,9.38
2022-11-05T04:49:58.251Z,9.36
2022-11-05T04:51:02.532Z,9.36
2022-11-05T04:52:06.580Z,9.35
2022-11-05T04:53:10.482Z,9.35
2022-11-05T04:54:13.354Z,9.35
2022-11-05T04:55:17.309Z,9.34
2022-11-05T04:56:21.820Z,9.34
2022-11-05T04:57:25.663Z,9.33
2022-11-05T04:58:28.450Z,9.33
2022-11-05T04:59:32.171Z,9.33
2022-11-05T05:00:34.848Z,9.33
2022-11-05T05:01:38.899Z,9.33
2022-11-05T05:02:41.741Z,9.31
2022-11-05T05:03:47.660Z,9.31
2022-11-05T05:04:50.380Z,9.30
2022-11-05T05:05:54.533Z,9.30
2022-11-05T05:07:00.410Z,9.30
2022-11-05T05:08:04.583Z,9.29
2022-11-05T05:09:07.331Z,9.28
2022-11-05T05:10:12.138Z,9.29
2022-11-05T05:11:16.984Z,9.27
2022-11-05T05:12:20.720Z,9.26
2022-11-05T05:13:23.491Z,9.25
2022-11-05T05:14:27.431Z,9.24
2022-11-05T05:15:30.110Z,9.24
2022-11-05T05:16:33.840Z,9.24
2022-11-05T05:17:37.662Z,9.23
2022-11-05T05:18:45.905Z,9.22
2022-11-05T05:20:07.524Z,9.21
2022-11-05T05:21:28.738Z,9.20
2022-11-05T05:22:33.876Z,9.18
2022-11-05T05:23:36.571Z,9.19
2022-11-05T05:24:40.350Z,9.19
2022-11-05T05:25:43.002Z,9.20
2022-11-05T05:26:48.549Z,9.22
2022-11-05T05:27:51.433Z,9.24
2022-11-05T05:28:55.447Z,9.24
2022-11-05T05:29:58.541Z,9.25
2022-11-05T05:31:02.683Z,9.24
2022-11-05T05:32:06.240Z,9.25
2022-11-05T05:33:10.266Z,9.25
2022-11-05T05:34:14.572Z,9.25
2022-11-05T05:35:18.460Z,9.25
2022-11-05T05:36:21.341Z,9.26
2022-11-05T05:37:25.182Z,9.27
2022-11-05T05:38:29.561Z,9.27
2022-11-05T05:39:33.331Z,9.29
2022-11-05T05:40:36.011Z,9.30
2022-11-05T05:41:39.920Z,9.32
2022-11-05T05:42:43.617Z,9.33
2022-11-05T05:43:47.522Z,9.34
2022-11-05T05:44:50.251Z,9.35
2022-11-05T05:45:53.978Z,9.36
2022-11-05T05:46:56.736Z,9.36
2022-11-05T05:48:00.422Z,9.38
2022-11-05T05:49:05.529Z,9.39
2022-11-05T05:50:13.301Z,9.39
2022-11-05T05:51:16.003Z,9.40
2022-11-05T05:52:20.059Z,9.41
2022-11-05T05:53:22.915Z,9.41
2022-11-05T05:54:32.311Z,9.43
2022-11-05T05:55:36.954Z,9.42
2022-11-05T05:56:40.701Z,9.42
2022-11-05T05:57:43.433Z,9.42
2022-11-05T05:58:47.585Z,9.42
2022-11-05T05:59:50.320Z,9.43
2022-11-05T06:00:54.254Z,9.42
2022-11-05T06:01:58.102Z,9.42
2022-11-05T06:03:00.963Z,9.43
2022-11-05T06:04:04.867Z,9.42
2022-11-05T06:05:08.101Z,9.43
2022-11-05T06:06:14.306Z,9.43
2022-11-05T06:07:18.034Z,9.44
2022-11-05T06:08:20.795Z,9.45
2022-11-05T06:09:25.023Z,9.44
2022-11-05T06:10:29.380Z,9.44
2022-11-05T06:11:33.289Z,9.43
2022-11-05T06:12:35.929Z,9.44
2022-11-05T06:13:39.709Z,9.45
2022-11-05T06:14:42.350Z,9.44
2022-11-05T06:15:46.090Z,9.44
2022-11-05T06:16:48.814Z,9.45
2022-11-05T06:17:52.710Z,9.43
2022-11-05T06:18:55.461Z,9.41
2022-11-05T06:19:59.263Z,9.38
2022-11-05T06:21:02.601Z,9.38
2022-11-05T06:22:06.371Z,9.37
2022-11-05T06:23:09.356Z,9.37
2022-11-05T06:24:13.390Z,9.37
2022-11-05T06:25:16.198Z,9.36
2022-11-05T06:26:21.667Z,9.36
2022-11-05T06:27:24.483Z,9.37
2022-11-05T06:28:28.239Z,9.37
2022-11-05T06:29:30.963Z,9.38
2022-11-05T06:30:34.757Z,9.39
2022-11-05T06:31:37.552Z,9.41
2022-11-05T06:32:41.402Z,9.42
2022-11-05T06:33:44.161Z,9.43
2022-11-05T06:34:47.928Z,9.42
2022-11-05T06:35:51.726Z,9.45
2022-11-05T06:36:55.620Z,9.45
2022-11-05T06:38:00.159Z,9.47
2022-11-05T06:39:03.949Z,9.48
2022-11-05T06:40:07.719Z,9.52
2022-11-05T06:41:11.497Z,9.53
2022-11-05T06:42:18.768Z,9.53
2022-11-05T06:43:23.115Z,9.54
2022-11-05T06:44:25.841Z,9.54
2022-11-05T06:45:29.559Z,9.56
2022-11-05T06:46:32.209Z,9.54
2022-11-05T06:47:35.922Z,9.54
2022-11-05T06:48:38.973Z,9.54
2022-11-05T06:49:42.688Z,9.53
2022-11-05T06:50:45.898Z,9.52
2022-11-05T06:51:49.658Z,9.50
2022-11-05T06:52:55.950Z,9.49
2022-11-05T06:53:59.639Z,9.49
2022-11-05T06:55:02.364Z,9.49
2022-11-05T06:56:06.787Z,9.49
2022-11-05T06:57:10.096Z,9.49
2022-11-05T06:58:15.470Z,9.49
2022-11-05T06:59:18.260Z,9.48
2022-11-05T07:00:22.507Z,9.49
2022-11-05T07:01:25.480Z,9.50
2022-11-05T07:02:29.300Z,9.51
2022-11-05T07:03:32.080Z,9.53
2022-11-05T07:04:35.888Z,9.54
2022-11-05T07:05:42.150Z,9.57
2022-11-05T07:06:45.902Z,9.57
2022-11-05T07:07:48.588Z,9.57
2022-11-05T07:08:52.386Z,9.59
2022-11-05T07:09:55.138Z,9.58
2022-11-05T07:10:58.930Z,9.59
2022-11-05T07:12:01.580Z,9.56
2022-11-05T07:13:08.411Z,9.54
2022-11-05T07:14:14.070Z,9.53
2022-11-05T07:15:16.798Z,9.53
2022-11-05T07:16:20.636Z,9.53
2022-11-05T07:17:23.625Z,9.54
2022-11-05T07:18:27.481Z,9.55
2022-11-05T07:19:30.198Z,9.54
2022-11-05T07:20:34.708Z,9.53
2022-11-05T07:21:38.580Z,9.50
2022-11-05T07:22:42.449Z,9.48
2022-11-05T07:23:46.280Z,9.46
2022-11-05T07:24:50.231Z,9.44
2022-11-05T07:25:54.169Z,9.42
2022-11-05T07:26:56.997Z,9.41
2022-11-05T07:28:01.021Z,9.42
2022-11-05T07:29:03.761Z,9.40
2022-11-05T07:30:12.123Z,9.40
2022-11-05T07:31:14.928Z,9.40
2022-11-05T07:32:19.100Z,9.40
2022-11-05T07:33:22.716Z,9.39
2022-11-05T07:34:27.870Z,9.39
2022-11-05T07:35:30.931Z,9.38
2022-11-05T07:36:35.410Z,9.39
2022-11-05T07:37:44.462Z,9.39
2022-11-05T07:38:48.261Z,9.39
2022-11-05T07:39:50.868Z,9.41
2022-11-05T07:40:54.812Z,9.41
2022-11-05T07:41:57.994Z,9.41
2022-11-05T07:43:10.359Z,9.41
2022-11-05T07:44:14.649Z,9.42
2022-11-05T07:45:20.482Z,9.44
2022-11-05T07:46:23.309Z,9.45
2022-11-05T07:47:27.039Z,9.47
2022-11-05T07:48:30.753Z,9.47
2022-11-05T07:49:34.569Z,9.51
2022-11-05T07:50:38.338Z,9.52
2022-11-05T07:51:42.228Z,9.53
2022-11-05T07:52:45.290Z,9.55
2022-11-05T07:53:49.650Z,9.56
2022-11-05T07:54:53.555Z,9.57
2022-11-05T07:55:59.168Z,9.59
2022-11-05T07:57:02.065Z,9.62
2022-11-05T07:58:05.942Z,9.62
2022-11-05T07:59:09.181Z,9.65
2022-11-05T08:00:14.550Z,9.67
2022-11-05T08:01:19.734Z,9.69
2022-11-05T08:02:22.787Z,9.69
2022-11-05T08:03:27.102Z,9.71
2022-11-05T08:04:29.989Z,9.71
2022-11-05T08:05:36.772Z,9.73
2022-11-05T08:06:40.648Z,9.74
2022-11-05T08:07:43.422Z,9.72
2022-11-05T08:08:47.201Z,9.72
2022-11-05T08:09:50.039Z,9.70
2022-11-05T08:10:53.918Z,9.69
2022-11-05T08:12:02.689Z,9.67
2022-11-05T08:13:08.161Z,9.68
2022-11-05T08:14:12.242Z,9.67
2022-11-05T08:15:14.964Z,9.65
2022-11-05T08:16:20.181Z,9.67
2022-11-05T08:17:22.959Z,9.68
2022-11-05T08:18:31.654Z,9.71
2022-11-05T08:19:34.331Z,9.72
2022-11-05T08:20:38.774Z,9.73
2022-11-05T08:21:41.537Z,9.75
2022-11-05T08:22:45.972Z,9.75
2022-11-05T08:23:48.681Z,9.76
2022-11-05T08:24:52.466Z,9.74
2022-11-05T08:25:57.000Z,9.77
2022-11-05T08:27:00.932Z,9.76
2022-11-05T08:28:05.321Z,9.77
2022-11-05T08:29:09.171Z,9.78
2022-11-05T08:30:12.783Z,9.76
2022-11-05T08:31:18.878Z,9.74
2022-11-05T08:32:23.849Z,9.72
2022-11-05T08:33:27.713Z,9.71
2022-11-05T08:34:30.569Z,9.71
2022-11-05T08:35:35.761Z,9.69
2022-11-05T08:36:40.718Z,9.64
2022-11-05T08:37:44.610Z,9.61
2022-11-05T08:38:47.330Z,9.59
2022-11-05T08:39:51.050Z,9.56
2022-11-05T08:40:56.390Z,9.52
2022-11-05T08:42:00.132Z,9.49
2022-11-05T08:43:04.580Z,9.46
2022-11-05T08:44:09.369Z,9.42
2022-11-05T08:45:12.080Z,9.40
2022-11-05T08:46:15.876Z,9.40
2022-11-05T08:47:18.560Z,9.37
2022-11-05T08:48:23.793Z,9.36
2022-11-05T08:49:26.455Z,9.35
2022-11-05T08:50:30.418Z,9.31
2022-11-05T08:51:33.156Z,9.30
2022-11-05T08:52:36.946Z,9.29
2022-11-05T08:53:39.582Z,9.27
2022-11-05T08:54:43.871Z,9.26
2022-11-05T08:55:47.949Z,9.24
2022-11-05T08:56:51.669Z,9.24
2022-11-05T08:57:56.668Z,9.25
2022-11-05T08:59:01.029Z,9.23
2022-11-05T09:00:04.189Z,9.23
2022-11-05T09:01:08.278Z,9.20
2022-11-05T09:02:11.648Z,9.19
2022-11-05T09:03:16.190Z,9.16
2022-11-05T09:04:20.717Z,9.14
2022-11-05T09:05:24.527Z,9.12
2022-11-05T09:06:28.341Z,9.11
2022-11-05T09:07:31.358Z,9.12
2022-11-05T09:08:35.310Z,9.11
2022-11-05T09:09:38.151Z,9.10
2022-11-05T09:10:42.689Z,9.09
2022-11-05T09:12:10.650Z,9.10
2022-11-05T09:13:17.729Z,9.10
2022-11-05T09:14:21.315Z,9.11
2022-11-05T09:15:25.417Z,9.09
2022-11-05T09:16:29.239Z,9.09
2022-11-05T09:17:32.058Z,9.08
2022-11-05T09:18:35.848Z,9.07
2022-11-05T09:19:40.315Z,9.07
2022-11-05T09:20:44.496Z,9.07
2022-11-05T09:21:47.323Z,9.09
2022-11-05T09:22:51.291Z,9.11
2022-11-05T09:23:55.208Z,9.13
2022-11-05T09:24:57.911Z,9.14
2022-11-05T09:26:01.816Z,9.17
2022-11-05T09:27:04.567Z,9.20
2022-11-05T09:28:16.181Z,9.24
2022-11-05T09:29:20.880Z,9.27
2022-11-05T09:30:23.749Z,9.29
2022-11-05T09:31:28.259Z,9.33
2022-11-05T09:32:31.437Z,9.34
2022-11-05T09:33:35.710Z,9.34
2022-11-05T09:34:44.980Z,9.36
2022-11-05T09:35:48.915Z,9.36
2022-11-05T09:36:52.723Z,9.37
2022-11-05T09:38:00.598Z,9.39
2022-11-05T09:39:05.710Z,9.40
2022-11-05T09:40:09.842Z,9.43
2022-11-05T09:41:17.462Z,9.45
2022-11-05T09:42:22.847Z,9.47
2022-11-05T09:43:31.814Z,9.46
2022-11-05T09:44:41.981Z,9.47
2022-11-05T09:45:45.822Z,9.48
2022-11-05T09:46:52.597Z,9.50
2022-11-05T09:47:58.477Z,9.54
2022-11-05T09:49:05.568Z,9.51
2022-11-05T09:50:14.552Z,9.49
2022-11-05T09:51:23.681Z,9.48
2022-11-05T09:52:29.240Z,9.47
2022-11-05T09:53:33.101Z,9.46
2022-11-05T09:54:36.948Z,9.45
2022-11-05T09:55:42.564Z,9.47
2022-11-05T09:56:46.654Z,9.48
2022-11-05T09:57:53.028Z,9.49
2022-11-05T09:59:00.732Z,9.48
2022-11-05T10:00:08.738Z,9.47
2022-11-05T10:01:15.965Z,9.48
2022-11-05T10:02:20.599Z,9.49
2022-11-05T10:03:25.785Z,9.51
2022-11-05T10:04:31.410Z,9.51
2022-11-05T10:05:38.811Z,9.51
2022-11-05T10:06:53.628Z,9.51
2022-11-05T10:07:59.998Z,9.49
2022-11-05T10:09:07.064Z,9.50
2022-11-05T10:10:23.427Z,9.50
2022-11-05T10:11:31.268Z,9.49
2022-11-05T10:12:41.020Z,9.49
2022-11-05T10:13:47.562Z,9.50
2022-11-05T10:14:56.772Z,9.49
2022-11-05T10:16:02.830Z,9.49
2022-11-05T10:17:12.174Z,9.49
2022-11-05T10:18:21.033Z,9.49
2022-11-05T10:19:27.400Z,9.48
2022-11-05T10:20:35.890Z,9.46
2022-11-05T10:22:05.076Z,9.47
2022-11-05T10:23:15.465Z,9.48
2022-11-05T10:24:20.854Z,9.49
2022-11-05T10:25:25.719Z,9.51
2022-11-05T10:26:30.072Z,9.54
2022-11-05T10:27:34.749Z,9.57
2022-11-05T10:28:40.599Z,9.62
2022-11-05T10:29:44.496Z,9.65
2022-11-05T10:30:52.835Z,9.69
2022-11-05T10:31:58.009Z,9.71
2022-11-05T10:33:03.769Z,9.72
2022-11-05T10:34:11.602Z,9.73
2022-11-05T10:35:18.663Z,9.75
2022-11-05T10:36:25.991Z,9.76
2022-11-05T10:37:29.628Z,9.76
2022-11-05T10:38:33.988Z,9.76
2022-11-05T10:39:37.173Z,9.76
2022-11-05T10:40:48.378Z,9.76
2022-11-05T10:42:04.202Z,9.78
2022-11-05T10:43:13.388Z,9.79
2022-11-05T10:44:27.710Z,9.78
2022-11-05T10:45:40.261Z,9.79
2022-11-05T10:46:47.685Z,9.79
2022-11-05T10:48:02.091Z,9.79
2022-11-05T10:49:19.422Z,9.80
2022-11-05T10:50:26.058Z,9.80
2022-11-05T10:51:31.628Z,9.81
2022-11-05T10:52:36.279Z,9.81
2022-11-05T10:53:40.434Z,9.82
2022-11-05T10:54:43.469Z,9.80
2022-11-05T10:55:49.393Z,9.81
2022-11-05T10:56:53.276Z,9.81
2022-11-05T10:57:57.334Z,9.81
2022-11-05T10:59:06.686Z,9.80
2022-11-05T11:00:24.281Z,9.77
2022-11-05T11:01:28.276Z,9.74
2022-11-05T11:02:31.396Z,9.73
2022-11-05T11:03:40.361Z,9.71
2022-11-05T11:04:43.272Z,9.72
2022-11-05T11:05:47.019Z,9.73
2022-11-05T11:06:53.009Z,9.73
2022-11-05T11:08:03.391Z,9.74
2022-11-05T11:09:18.739Z,9.73
2022-11-05T11:10:23.820Z,9.71
2022-11-05T11:11:29.119Z,9.70
2022-11-05T11:12:40.837Z,9.69
2022-11-05T11:13:53.045Z,9.71
2022-11-05T11:15:03.023Z,9.72
2022-11-05T11:16:16.030Z,9.74
2022-11-05T11:17:28.051Z,9.74
2022-11-05T11:18:37.315Z,9.74
2022-11-05T11:19:43.780Z,9.75
2022-11-05T11:20:46.869Z,9.77
2022-11-05T11:22:18.890Z,9.80
2022-11-05T11:23:22.755Z,9.80
2022-11-05T11:24:32.455Z,9.82
2022-11-05T11:25:42.141Z,9.85
2022-11-05T11:26:44.872Z,9.88
2022-11-05T11:27:48.651Z,9.89
2022-11-05T11:28:57.681Z,9.90
2022-11-05T11:30:02.978Z,9.89
2022-11-05T11:31:08.510Z,9.89
2022-11-05T11:32:15.604Z,9.91
2022-11-05T11:33:23.157Z,9.90
2022-11-05T11:34:30.697Z,9.89
2022-11-05T11:35:38.358Z,9.89
2022-11-05T11:36:46.612Z,9.89
2022-11-05T11:37:53.128Z,9.89
2022-11-05T11:39:00.937Z,9.90
2022-11-05T11:40:06.470Z,9.90
2022-11-05T11:41:24.480Z,9.92
2022-11-05T11:42:31.175Z,9.93
2022-11-05T11:43:37.652Z,9.96
2022-11-05T11:44:42.729Z,9.96
2022-11-05T11:45:48.738Z,9.95
2022-11-05T11:46:55.062Z,9.96
2022-11-05T11:47:58.248Z,9.96
2022-11-05T11:49:03.180Z,9.95
2022-11-05T11:50:07.586Z,9.95
2022-11-05T11:51:21.160Z,9.98
2022-11-05T11:52:30.127Z,9.98
2022-11-05T11:53:36.681Z,10.00
2022-11-05T11:54:40.585Z,10.00
2022-11-05T11:55:58.219Z,10.03
2022-11-05T11:57:02.102Z,10.03
2022-11-05T11:58:07.973Z,10.03
2022-11-05T11:59:27.269Z,10.02
2022-11-05T12:00:50.252Z,9.97
2022-11-05T12:02:37.080Z,9.96
2022-11-05T12:03:44.606Z,9.95
2022-11-05T12:05:04.952Z,9.95
2022-11-05T12:06:22.599Z,9.93
2022-11-05T12:07:41.398Z,9.93
2022-11-05T12:08:58.352Z,9.93
2022-11-05T12:10:20.311Z,9.93
2022-11-05T12:11:28.893Z,9.94
2022-11-05T12:12:38.448Z,9.98
2022-11-05T12:13:58.301Z,10.00
2022-11-05T12:15:05.660Z,10.00
2022-11-05T12:16:16.212Z,10.02
2022-11-05T12:17:31.551Z,10.03
2022-11-05T12:18:40.649Z,10.03
2022-11-05T12:20:09.370Z,10.02
2022-11-05T12:21:29.436Z,10.01
2022-11-05T12:22:53.815Z,10.00
2022-11-05T12:24:16.943Z,10.01
2022-11-05T12:25:23.726Z,10.01
2022-11-05T12:26:33.370Z,10.03
2022-11-05T12:27:53.562Z,10.03
2022-11-05T12:29:18.800Z,10.03
2022-11-05T12:30:24.111Z,9.98
2022-11-05T12:31:33.810Z,9.98
2022-11-05T12:32:47.579Z,9.97
2022-11-05T12:33:58.299Z,9.94
2022-11-05T12:35:11.383Z,9.91
2022-11-05T12:36:23.931Z,9.90
2022-11-05T12:37:32.675Z,9.88
2022-11-05T12:38:52.113Z,9.88
2022-11-05T12:40:17.598Z,9.85
2022-11-05T12:41:26.453Z,9.84
2022-11-05T12:42:40.390Z,9.82
2022-11-05T12:43:55.431Z,9.81
2022-11-05T12:45:02.690Z,9.83
2022-11-05T12:46:16.309Z,9.84
2022-11-05T12:47:33.251Z,9.84
2022-11-05T12:48:52.525Z,9.83
2022-11-05T12:50:06.667Z,9.84
2022-11-05T12:51:18.721Z,9.84
2022-11-05T12:52:34.732Z,9.85
2022-11-05T12:53:55.510Z,9.88
2022-11-05T12:55:04.578Z,9.87
2022-11-05T12:56:15.668Z,9.89
2022-11-05T12:57:18.841Z,9.90
2022-11-05T12:58:25.322Z,9.92
2022-11-05T12:59:34.129Z,9.94
2022-11-05T13:00:38.756Z,9.97
2022-11-05T13:01:46.454Z,9.97
2022-11-05T13:02:54.534Z,9.98
2022-11-05T13:04:02.265Z,9.98
2022-11-05T13:05:06.691Z,9.99
2022-11-05T13:06:13.779Z,10.00
2022-11-05T13:07:20.918Z,10.00
2022-11-05T13:08:25.880Z,10.02
2022-11-05T13:09:35.450Z,10.06
2022-11-05T13:10:41.914Z,10.08
2022-11-05T13:11:51.158Z,10.12
2022-11-05T13:13:00.247Z,10.18
2022-11-05T13:14:09.252Z,10.23
2022-11-05T13:15:20.490Z,10.27
2022-11-05T13:16:28.551Z,10.29
2022-11-05T13:17:34.902Z,10.30
2022-11-05T13:18:43.502Z,10.32
2022-11-05T13:19:51.922Z,10.35
2022-11-05T13:20:55.340Z,10.37
2022-11-05T13:22:02.007Z,10.39
2022-11-05T13:23:12.233Z,10.40
2022-11-05T13:24:19.451Z,10.40
2022-11-05T13:25:24.251Z,10.41
2022-11-05T13:26:33.051Z,10.41
2022-11-05T13:27:53.362Z,10.39
2022-11-05T13:29:01.073Z,10.38
2022-11-05T13:30:06.802Z,10.36
2022-11-05T13:31:13.568Z,10.36
2022-11-05T13:32:24.460Z,10.35
2022-11-05T13:33:30.860Z,10.32
2022-11-05T13:34:37.618Z,10.29
2022-11-05T13:35:44.399Z,10.25
2022-11-05T13:37:11.120Z,10.21
2022-11-05T13:38:40.686Z,10.13
2022-11-05T13:39:47.641Z,10.05
2022-11-05T13:41:04.360Z,10.01
2022-11-05T13:42:38.096Z,9.96
2022-11-05T13:44:04.452Z,9.90
2022-11-05T13:45:24.311Z,9.84
2022-11-05T13:46:45.752Z,9.81
2022-11-05T13:48:01.639Z,9.77
2022-11-05T13:49:33.887Z,9.74
2022-11-05T13:51:00.713Z,9.74
2022-11-05T13:52:16.740Z,9.72
2022-11-05T13:53:54.872Z,9.70
2022-11-05T13:55:37.341Z,9.63
2022-11-05T13:56:54.010Z,9.59
2022-11-05T13:58:37.427Z,9.57
2022-11-05T14:00:00.373Z,9.55
2022-11-05T14:01:11.874Z,9.54
2022-11-05T14:02:18.209Z,9.53
2022-11-05T14:03:21.471Z,9.53
2022-11-05T14:04:32.281Z,9.54
2022-11-05T14:05:38.168Z,9.55
2022-11-05T14:06:40.998Z,9.54
2022-11-05T14:07:46.912Z,9.55
2022-11-05T14:08:51.028Z,9.55
2022-11-05T14:09:56.200Z,9.56
2022-11-05T14:11:01.258Z,9.56
2022-11-05T14:12:05.448Z,9.56
2022-11-05T14:13:22.629Z,9.57
2022-11-05T14:14:32.242Z,9.56
2022-11-05T14:15:37.031Z,9.56
2022-11-05T14:16:50.597Z,9.55
2022-11-05T14:17:59.544Z,9.56
2022-11-05T14:19:44.841Z,9.55
2022-11-05T14:20:58.890Z,9.52
2022-11-05T14:22:39.170Z,9.49
2022-11-05T14:23:50.322Z,9.46
2022-11-05T14:24:54.107Z,9.46
2022-11-05T14:25:57.851Z,9.46
2022-11-05T14:27:37.842Z,9.48
2022-11-05T14:28:45.769Z,9.45
2022-11-05T14:29:50.147Z,9.46
2022-11-05T14:30:54.270Z,9.47
2022-11-05T14:32:09.766Z,9.48
2022-11-05T14:33:33.382Z,9.49
2022-11-05T14:34:46.162Z,9.47
2022-11-05T14:35:48.868Z,9.45
2022-11-05T14:37:22.254Z,9.46
2022-11-05T14:38:28.281Z,9.43
2022-11-05T14:39:32.109Z,9.43
2022-11-05T14:40:38.312Z,9.41
2022-11-05T14:41:56.060Z,9.41
2022-11-05T14:43:01.840Z,9.39
2022-11-05T14:44:06.997Z,9.38
2022-11-05T14:45:25.433Z,9.39
2022-11-05T14:46:40.793Z,9.37
2022-11-05T14:47:51.083Z,9.35
2022-11-05T14:49:09.089Z,9.35
2022-11-05T14:50:21.276Z,9.35
2022-11-05T14:51:27.371Z,9.37
2022-11-05T14:52:31.159Z,9.38
2022-11-05T14:53:35.850Z,9.40
2022-11-05T14:54:45.516Z,9.39
2022-11-05T14:55:57.790Z,9.39
2022-11-05T14:57:02.682Z,9.37